Time;durP1;ratioP1;P1;durP2;ratioP2;P2;SDS_P1;SDS_P2;PMS_P1;PMS_P2;Temp;Humidity;BMP_temperature;BMP_pressure;BME280_temperature;BME280_humidity;BME280_pressure;Samples;Min_cycle;Max_cycle;Signal;HPM_P1;HPM_P2
2022/08/22 00:00:10;;;;;;;5.67;3.53;;;19.60;94.90;;;;;;5036581;28;20945;-68
2022/08/22 00:03:00;;;;;;;3.80;2.90;;;19.60;95.00;;;;;;5036237;28;20413;-68
2022/08/22 00:05:50;;;;;;;6.17;3.77;;;19.60;95.00;;;;;;5037400;28;20439;-68
2022/08/22 00:08:26;;;;;;;4.40;3.50;;;19.50;95.50;;;;;;5037015;28;20406;-68
2022/08/22 00:11:11;;;;;;;3.30;2.90;;;19.50;95.70;;;;;;5036960;28;20444;-68
2022/08/22 00:14:07;;;;;;;4.23;3.63;;;19.50;95.60;;;;;;5036478;28;20414;-68
2022/08/22 00:16:44;;;;;;;4.30;3.33;;;19.60;95.80;;;;;;5036538;28;20456;-68
2022/08/22 00:19:42;;;;;;;4.40;3.50;;;19.60;95.50;;;;;;5036786;28;20970;-68
2022/08/22 00:22:17;;;;;;;3.83;3.53;;;19.70;95.80;;;;;;5036174;28;20934;-68
2022/08/22 00:24:51;;;;;;;5.07;3.57;;;19.80;95.90;;;;;;5036617;28;20385;-68
2022/08/22 00:27:36;;;;;;;5.50;3.57;;;19.80;95.90;;;;;;5036274;28;20399;-69
2022/08/22 00:30:11;;;;;;;4.50;4.10;;;19.70;96.30;;;;;;5036413;28;20382;-68
2022/08/22 00:32:44;;;;;;;5.77;4.10;;;19.60;96.70;;;;;;5036070;28;20420;-67
2022/08/22 00:35:35;;;;;;;5.60;4.40;;;19.60;97.00;;;;;;5036181;28;20396;-68
2022/08/22 00:38:25;;;;;;;5.47;4.43;;;19.60;97.30;;;;;;5035864;28;20386;-68
2022/08/22 00:41:16;;;;;;;4.33;3.93;;;19.50;97.50;;;;;;5051332;28;20476;-68
2022/08/22 00:44:03;;;;;;;5.20;3.70;;;19.50;97.20;;;;;;5036451;28;20387;-68
2022/08/22 00:46:53;;;;;;;4.77;4.03;;;19.40;97.20;;;;;;5051395;28;20926;-68
2022/08/22 00:49:40;;;;;;;4.60;4.10;;;19.40;97.20;;;;;;5034325;28;20422;-67
2022/08/22 00:52:34;;;;;;;3.80;3.50;;;19.50;97.90;;;;;;5035632;28;20418;-68
2022/08/22 00:55:38;;;;;;;6.40;3.57;;;19.60;97.60;;;;;;5034479;28;20508;-68
2022/08/22 00:58:37;;;;;;;6.20;3.90;;;19.60;97.80;;;;;;5035887;28;20409;-68
2022/08/22 01:01:07;;;;;;;4.90;4.00;;;19.50;98.40;;;;;;5035701;28;20609;-68
2022/08/22 01:03:48;;;;;;;4.60;4.20;;;19.40;98.50;;;;;;5034994;28;20727;-68
2022/08/22 01:06:39;;;;;;;4.63;4.07;;;19.40;99.20;;;;;;5035537;28;20438;-67
2022/08/22 01:09:40;;;;;;;5.07;4.30;;;19.40;99.30;;;;;;5035668;28;20412;-68
2022/08/22 01:12:26;;;;;;;5.53;4.03;;;19.40;99.20;;;;;;5035199;28;20414;-67
2022/08/22 01:15:04;;;;;;;6.17;4.30;;;19.40;99.50;;;;;;5034807;28;20398;-69
2022/08/22 01:17:51;;;;;;;4.50;4.00;;;19.30;99.70;;;;;;5035393;28;20854;-68
2022/08/22 01:20:38;;;;;;;3.93;3.47;;;19.30;99.60;;;;;;5015340;28;20461;-68
2022/08/22 01:23:25;;;;;;;4.27;3.60;;;19.20;99.90;;;;;;5015931;28;20398;-68
2022/08/22 01:26:13;;;;;;;5.07;3.93;;;19.00;99.90;;;;;;5015495;28;20422;-68
2022/08/22 01:29:00;;;;;;;4.10;3.70;;;18.90;99.90;;;;;;5034894;28;20418;-67
2022/08/22 01:32:10;;;;;;;4.97;3.60;;;18.80;99.90;;;;;;5034909;28;20518;-68
2022/08/22 01:35:13;;;;;;;4.30;3.70;;;18.60;99.90;;;;;;5000751;28;20484;-67
2022/08/22 01:37:59;;;;;;;7.13;4.50;;;18.60;99.90;;;;;;5034586;28;20402;-67
2022/08/22 01:41:01;;;;;;;4.00;3.60;;;18.70;99.90;;;;;;5034735;28;20488;-68
2022/08/22 01:43:51;;;;;;;4.40;3.83;;;18.70;99.90;;;;;;5034880;28;20386;-67
2022/08/22 01:46:24;;;;;;;4.60;3.53;;;18.70;99.90;;;;;;5035354;28;20382;-68
2022/08/22 01:49:35;;;;;;;3.73;3.30;;;18.70;99.90;;;;;;5034223;28;20414;-67
2022/08/22 01:52:06;;;;;;;4.00;3.60;;;18.60;99.90;;;;;;5013671;28;20507;-68
2022/08/22 01:54:50;;;;;;;3.57;3.23;;;18.50;99.90;;;;;;5034856;28;20401;-68
2022/08/22 01:57:18;;;;;;;4.43;3.33;;;18.50;99.90;;;;;;5034438;28;20427;-68
2022/08/22 01:59:47;;;;;;;4.13;3.50;;;18.50;99.90;;;;;;5049922;28;20869;-68
2022/08/22 02:02:44;;;;;;;4.70;3.17;;;18.50;99.90;;;;;;5034434;28;20450;-68
2022/08/22 02:05:15;;;;;;;5.80;3.90;;;18.50;99.90;;;;;;5033437;28;20441;-68
2022/08/22 02:08:16;;;;;;;3.97;3.57;;;18.40;99.90;;;;;;5034706;28;20505;-68
2022/08/22 02:10:54;;;;;;;6.10;4.10;;;18.50;99.90;;;;;;5034449;28;20475;-67
2022/08/22 02:13:41;;;;;;;5.80;4.20;;;18.50;99.90;;;;;;5032810;28;20424;-68
2022/08/22 02:16:35;;;;;;;4.53;3.63;;;18.40;99.90;;;;;;5034208;28;20382;-68
2022/08/22 02:19:20;;;;;;;5.00;3.60;;;18.30;99.90;;;;;;5033824;28;20488;-68
2022/08/22 02:22:09;;;;;;;4.00;3.60;;;18.20;99.90;;;;;;5034081;28;20417;-68
2022/08/22 02:24:59;;;;;;;5.83;3.77;;;18.20;99.90;;;;;;5032357;28;20415;-68
2022/08/22 02:27:44;;;;;;;4.43;4.03;;;18.30;99.90;;;;;;5030799;28;20489;-68
2022/08/22 02:30:14;;;;;;;5.37;3.67;;;18.40;99.90;;;;;;5034127;28;20456;-68
2022/08/22 02:32:40;;;;;;;3.90;3.50;;;18.40;99.90;;;;;;5033807;28;20405;-68
2022/08/22 02:35:13;;;;;;;4.80;3.53;;;18.50;99.90;;;;;;5033748;28;20410;-68
2022/08/22 02:38:00;;;;;;;5.33;4.27;;;18.40;99.90;;;;;;5033504;28;20221;-68
2022/08/22 02:40:40;;;;;;;4.43;3.80;;;18.30;99.90;;;;;;5033576;28;20526;-68
2022/08/22 02:43:20;;;;;;;4.20;3.50;;;18.20;99.90;;;;;;5032562;28;20409;-68
2022/08/22 02:46:04;;;;;;;5.47;4.00;;;18.20;99.90;;;;;;5013902;28;20436;-69
2022/08/22 02:48:54;;;;;;;5.90;4.10;;;18.10;99.90;;;;;;5014362;28;20474;-68
2022/08/22 02:51:40;;;;;;;5.10;4.40;;;18.10;99.90;;;;;;5026917;28;20449;-69
2022/08/22 02:54:35;;;;;;;6.27;4.67;;;18.10;99.90;;;;;;5033720;28;20393;-68
2022/08/22 02:57:27;;;;;;;5.07;4.10;;;18.00;99.90;;;;;;5033711;28;20477;-68
2022/08/22 03:00:27;;;;;;;5.20;4.43;;;17.90;99.90;;;;;;5034185;28;20435;-68
2022/08/22 03:02:55;;;;;;;4.33;3.90;;;17.80;99.90;;;;;;5001176;28;20426;-68
2022/08/22 03:05:35;;;;;;;6.83;4.70;;;17.80;99.90;;;;;;5032951;28;20398;-68
2022/08/22 03:08:24;;;;;;;6.53;4.47;;;17.80;99.90;;;;;;5033350;28;20879;-68
2022/08/22 03:11:23;;;;;;;5.63;5.10;;;17.80;99.90;;;;;;5033059;28;20418;-68
2022/08/22 03:14:06;;;;;;;5.50;4.93;;;17.90;99.90;;;;;;5033012;28;20897;-68
2022/08/22 03:16:44;;;;;;;4.90;3.87;;;17.90;99.90;;;;;;5033306;28;20969;-68
2022/08/22 03:19:17;;;;;;;5.10;3.90;;;17.90;99.90;;;;;;5032776;28;20485;-68
2022/08/22 03:22:07;;;;;;;6.57;4.87;;;17.80;99.90;;;;;;5032612;28;20452;-68
2022/08/22 03:24:50;;;;;;;7.10;4.80;;;17.80;99.90;;;;;;5033567;28;20409;-68
2022/08/22 03:27:23;;;;;;;5.43;4.33;;;17.90;99.90;;;;;;5033391;28;20384;-69
2022/08/22 03:29:54;;;;;;;4.97;4.47;;;17.80;99.90;;;;;;5033109;28;20394;-68
2022/08/22 03:32:42;;;;;;;4.93;4.40;;;17.80;99.90;;;;;;5033244;28;20493;-67
2022/08/22 03:35:10;;;;;;;4.63;4.20;;;17.70;99.90;;;;;;5033323;28;20424;-69
2022/08/22 03:37:39;;;;;;;4.77;4.27;;;17.70;99.90;;;;;;5036546;28;20405;-69
2022/08/22 03:40:26;;;;;;;5.97;4.20;;;17.70;99.90;;;;;;5032729;28;20931;-70
2022/08/22 03:43:13;;;;;;;6.73;4.50;;;17.70;99.90;;;;;;5032541;28;20419;-69
2022/08/22 03:45:41;;;;;;;5.20;4.17;;;17.60;99.90;;;;;;5032998;28;20431;-69
2022/08/22 03:48:44;;;;;;;4.50;4.10;;;17.50;99.90;;;;;;5032873;28;20410;-69
2022/08/22 03:51:29;;;;;;;4.90;4.40;;;17.50;99.90;;;;;;5031454;28;20445;-69
2022/08/22 03:54:28;;;;;;;4.77;4.23;;;17.40;99.90;;;;;;5032766;28;20435;-69
2022/08/22 03:57:21;;;;;;;6.43;4.20;;;17.40;99.90;;;;;;5033374;28;20482;-69
2022/08/22 04:00:17;;;;;;;5.13;4.27;;;17.40;99.90;;;;;;5033035;28;20586;-69
2022/08/22 04:02:55;;;;;;;5.33;4.80;;;17.50;99.90;;;;;;5033173;28;20383;-69
2022/08/22 04:05:32;;;;;;;8.87;4.43;;;17.40;99.90;;;;;;5033084;28;20975;-69
2022/08/22 04:08:13;;;;;;;4.63;4.10;;;17.40;99.90;;;;;;5032993;28;20435;-69
2022/08/22 04:10:53;;;;;;;5.10;4.57;;;17.40;99.90;;;;;;5032701;28;20449;-69
2022/08/22 04:13:56;;;;;;;4.90;4.40;;;17.30;99.90;;;;;;5032883;28;20384;-69
2022/08/22 04:16:40;;;;;;;7.70;4.40;;;17.20;99.90;;;;;;5032858;28;20403;-69
2022/08/22 04:19:23;;;;;;;7.73;5.40;;;17.20;99.90;;;;;;5032930;28;20833;-70
2022/08/22 04:22:15;;;;;;;5.80;4.37;;;17.10;99.90;;;;;;5032382;28;20443;-69
2022/08/22 04:24:41;;;;;;;5.13;4.63;;;17.10;99.90;;;;;;5032621;28;20404;-69
2022/08/22 04:27:32;;;;;;;7.43;4.93;;;17.10;99.90;;;;;;5032388;28;20400;-69
2022/08/22 04:30:09;;;;;;;6.40;5.07;;;17.20;99.90;;;;;;5032403;28;20503;-70
2022/08/22 04:32:45;;;;;;;6.20;4.77;;;17.10;99.90;;;;;;5035478;28;20419;-69
2022/08/22 04:35:30;;;;;;;7.77;4.60;;;17.20;99.90;;;;;;5036230;28;20445;-69
2022/08/22 04:37:59;;;;;;;5.20;4.70;;;17.20;99.90;;;;;;5028387;28;20420;-70
2022/08/22 04:40:29;;;;;;;5.90;4.50;;;17.10;99.90;;;;;;5035850;28;20519;-71
2022/08/22 04:43:10;;;;;;;4.50;3.93;;;17.10;99.90;;;;;;5051092;28;20440;-72
2022/08/22 04:45:54;;;;;;;7.57;4.60;;;17.00;99.90;;;;;;5036064;28;20475;-68
2022/08/22 04:48:28;;;;;;;5.57;5.07;;;17.00;99.90;;;;;;5035874;28;20486;-69
2022/08/22 04:51:21;;;;;;;5.23;4.73;;;17.00;99.90;;;;;;5033510;28;20447;-73
2022/08/22 04:54:14;;;;;;;5.07;4.50;;;17.00;99.90;;;;;;5035949;28;20427;-71
2022/08/22 04:57:00;;;;;;;5.40;4.37;;;17.00;99.90;;;;;;5036105;28;20799;-71
2022/08/22 04:59:29;;;;;;;4.53;4.13;;;16.80;99.90;;;;;;5035538;28;20939;-70
2022/08/22 05:02:05;;;;;;;5.80;4.37;;;16.90;99.90;;;;;;5035579;28;20421;-68
2022/08/22 05:04:39;;;;;;;5.27;4.77;;;17.00;99.90;;;;;;5035374;28;20442;-68
2022/08/22 05:07:19;;;;;;;5.00;4.60;;;17.10;99.90;;;;;;5034772;28;20488;-70
2022/08/22 05:10:02;;;;;;;4.53;4.10;;;17.20;99.90;;;;;;5035521;28;20442;-69
2022/08/22 05:12:36;;;;;;;5.33;4.63;;;17.30;99.90;;;;;;5035226;28;20400;-69
2022/08/22 05:15:22;;;;;;;7.63;4.97;;;17.40;99.90;;;;;;5035667;28;20392;-69
2022/08/22 05:17:50;;;;;;;7.53;5.30;;;17.40;99.90;;;;;;5033966;28;20414;-70
2022/08/22 05:20:20;;;;;;;7.03;5.57;;;17.40;99.90;;;;;;5027549;28;20522;-71
2022/08/22 05:22:53;;;;;;;6.13;5.53;;;17.40;99.90;;;;;;5033938;28;20411;-70
2022/08/22 05:25:29;;;;;;;6.73;5.67;;;17.40;99.90;;;;;;5035360;28;20444;-71
2022/08/22 05:28:09;;;;;;;7.43;4.93;;;17.50;99.90;;;;;;5035565;28;20485;-70
2022/08/22 05:30:38;;;;;;;6.70;6.07;;;17.60;99.90;;;;;;5035199;28;20415;-71
2022/08/22 05:33:21;;;;;;;8.07;5.80;;;17.60;99.90;;;;;;5035326;28;20476;-70
2022/08/22 05:35:57;;;;;;;6.13;5.60;;;17.60;99.90;;;;;;5034542;28;20961;-70
2022/08/22 05:38:29;;;;;;;5.17;4.43;;;17.70;99.90;;;;;;5035437;28;20503;-70
2022/08/22 05:41:08;;;;;;;7.17;5.47;;;17.80;99.90;;;;;;5036058;28;20842;-69
2022/08/22 05:43:38;;;;;;;6.87;5.50;;;17.80;99.90;;;;;;5034076;28;20488;-69
2022/08/22 05:46:08;;;;;;;6.53;5.53;;;17.90;99.90;;;;;;5034794;28;20479;-69
2022/08/22 05:48:41;;;;;;;7.40;6.20;;;17.90;99.90;;;;;;5034394;28;20480;-69
2022/08/22 05:51:52;;;;;;;6.70;6.10;;;17.90;99.90;;;;;;5033115;28;20447;-69
2022/08/22 05:54:25;;;;;;;7.10;5.90;;;18.00;99.90;;;;;;5006242;28;20413;-69
2022/08/22 05:57:00;;;;;;;6.80;5.97;;;18.00;99.90;;;;;;5034686;28;20387;-69
2022/08/22 05:59:31;;;;;;;9.00;5.33;;;18.10;99.90;;;;;;5034683;28;20445;-70
2022/08/22 06:02:03;;;;;;;5.53;5.03;;;18.10;99.90;;;;;;5032893;28;20849;-69
2022/08/22 06:04:44;;;;;;;6.17;5.57;;;18.20;99.90;;;;;;5034182;28;20398;-69
2022/08/22 06:07:19;;;;;;;6.13;5.53;;;18.30;99.90;;;;;;5034570;28;20479;-69
2022/08/22 06:09:44;;;;;;;6.57;5.37;;;18.40;99.90;;;;;;5034493;28;20427;-69
2022/08/22 06:12:22;;;;;;;5.83;5.23;;;18.70;99.90;;;;;;5049197;28;20492;-69
2022/08/22 06:15:36;;;;;;;6.80;5.50;;;19.10;99.90;;;;;;5034140;28;20148;-69
2022/08/22 06:18:09;;;;;;;7.00;5.30;;;19.30;99.90;;;;;;5000501;28;20790;-70
2022/08/22 06:20:59;;;;;;;7.00;6.13;;;19.40;99.90;;;;;;5034060;28;20470;-68
2022/08/22 06:23:45;;;;;;;7.20;6.00;;;19.30;99.90;;;;;;5034509;28;20883;-69
2022/08/22 06:26:11;;;;;;;6.47;5.87;;;19.30;99.90;;;;;;5034134;28;20421;-68
2022/08/22 06:28:46;;;;;;;7.70;5.87;;;19.30;99.90;;;;;;5033751;28;20906;-68
2022/08/22 06:31:27;;;;;;;7.60;5.90;;;19.50;99.90;;;;;;5033271;28;20939;-68
2022/08/22 06:34:09;;;;;;;6.20;5.60;;;19.60;99.90;;;;;;5033920;28;20392;-69
2022/08/22 06:36:38;;;;;;;8.53;6.00;;;19.80;99.90;;;;;;5033414;28;20406;-68
2022/08/22 06:39:15;;;;;;;7.97;5.93;;;19.80;99.90;;;;;;5033543;28;20455;-69
2022/08/22 06:42:09;;;;;;;7.60;5.80;;;20.00;99.90;;;;;;5033392;28;20444;-69
2022/08/22 06:44:46;;;;;;;10.57;8.00;;;20.10;99.90;;;;;;5033605;28;20413;-68
2022/08/22 06:47:22;;;;;;;8.17;6.70;;;19.90;99.90;;;;;;5031842;28;20378;-68
2022/08/22 06:49:53;;;;;;;6.20;5.63;;;19.70;99.90;;;;;;5032824;28;20382;-68
2022/08/22 06:52:24;;;;;;;7.57;5.57;;;19.80;99.90;;;;;;5031916;28;20437;-69
2022/08/22 06:54:59;;;;;;;6.50;5.87;;;20.10;99.90;;;;;;5033674;28;20383;-68
2022/08/22 06:57:42;;;;;;;8.33;6.37;;;20.30;99.90;;;;;;5033553;28;20408;-68
2022/08/22 07:00:12;;;;;;;8.80;5.93;;;20.40;99.90;;;;;;5032955;28;20766;-69
2022/08/22 07:02:47;;;;;;;5.23;4.43;;;20.40;99.90;;;;;;5033908;28;20733;-68
2022/08/22 07:05:27;;;;;;;6.13;5.10;;;20.50;99.90;;;;;;5033453;28;20390;-69
2022/08/22 07:07:54;;;;;;;6.90;5.00;;;20.60;99.90;;;;;;5047974;28;20421;-68
2022/08/22 07:10:22;;;;;;;6.43;5.10;;;20.60;99.90;;;;;;5032501;28;20496;-68
2022/08/22 07:12:52;;;;;;;5.90;4.60;;;20.70;99.90;;;;;;5032845;28;20493;-68
2022/08/22 07:15:33;;;;;;;4.53;4.10;;;20.70;99.90;;;;;;5033309;28;20406;-69
2022/08/22 07:18:03;;;;;;;4.90;4.50;;;20.80;99.90;;;;;;5032905;28;20448;-69
2022/08/22 07:20:35;;;;;;;5.50;4.90;;;21.10;99.90;;;;;;5032713;28;20462;-68
2022/08/22 07:23:09;;;;;;;6.63;4.93;;;21.40;99.90;;;;;;5032348;28;20766;-69
2022/08/22 07:25:54;;;;;;;6.43;4.73;;;21.40;99.90;;;;;;5032861;28;20436;-68
2022/08/22 07:28:22;;;;;;;5.27;4.10;;;21.30;99.90;;;;;;5032480;28;20386;-69
2022/08/22 07:30:57;;;;;;;4.90;4.37;;;21.40;99.90;;;;;;5012825;28;20425;-68
2022/08/22 07:33:37;;;;;;;4.90;3.70;;;21.20;99.90;;;;;;5013151;28;20393;-68
2022/08/22 07:36:19;;;;;;;5.70;4.10;;;21.30;99.90;;;;;;5012750;28;20445;-68
2022/08/22 07:38:54;;;;;;;9.10;4.20;;;21.50;99.90;;;;;;5012700;28;20821;-68
2022/08/22 07:41:27;;;;;;;6.67;3.87;;;21.40;99.90;;;;;;5012385;28;20454;-69
2022/08/22 07:44:09;;;;;;;4.90;3.97;;;21.60;99.90;;;;;;5012419;28;20398;-69
2022/08/22 07:46:43;;;;;;;5.70;4.60;;;21.50;99.90;;;;;;5010942;28;20533;-68
2022/08/22 07:49:21;;;;;;;5.17;4.27;;;21.40;99.90;;;;;;5012322;28;20402;-69
2022/08/22 07:51:59;;;;;;;4.73;4.30;;;21.50;99.90;;;;;;5015099;28;20472;-68
2022/08/22 07:54:49;;;;;;;5.80;4.97;;;21.50;99.90;;;;;;5031300;28;20398;-69
2022/08/22 07:57:28;;;;;;;6.83;5.00;;;21.30;99.90;;;;;;5031970;28;20386;-69
2022/08/22 07:59:56;;;;;;;5.23;4.20;;;21.30;99.90;;;;;;5031959;28;20469;-68
2022/08/22 08:02:23;;;;;;;4.30;4.00;;;21.30;99.90;;;;;;5031691;28;20404;-69
2022/08/22 08:04:53;;;;;;;5.30;4.50;;;21.50;99.90;;;;;;5031672;28;20402;-68
2022/08/22 08:07:24;;;;;;;4.03;3.70;;;21.50;99.90;;;;;;5033599;28;20891;-68
2022/08/22 08:09:59;;;;;;;5.70;5.10;;;21.80;99.90;;;;;;5035396;28;20492;-68
2022/08/22 08:12:35;;;;;;;7.40;4.37;;;21.80;99.90;;;;;;5024522;28;20429;-69
2022/08/22 08:15:05;;;;;;;4.87;4.47;;;22.00;99.90;;;;;;5035263;28;20382;-68
2022/08/22 08:17:33;;;;;;;5.20;4.40;;;22.00;99.90;;;;;;5034860;28;20968;-68
2022/08/22 08:20:06;;;;;;;10.73;5.70;;;22.00;99.90;;;;;;5034920;28;20761;-68
2022/08/22 08:22:32;;;;;;;6.17;4.47;;;22.10;99.90;;;;;;5034541;28;20918;-68
2022/08/22 08:25:00;;;;;;;5.17;4.50;;;22.30;99.90;;;;;;5050133;28;20407;-68
2022/08/22 08:30:32;;;;;;;6.13;4.83;;;22.70;99.90;;;;;;5035006;28;20456;-68
2022/08/22 08:33:00;;;;;;;5.67;4.53;;;22.70;99.90;;;;;;5034710;28;20894;-68
2022/08/22 08:35:30;;;;;;;5.57;4.57;;;22.80;99.90;;;;;;5034737;28;20402;-69
2022/08/22 08:38:06;;;;;;;5.20;4.47;;;23.00;99.90;;;;;;5034166;28;20421;-69
2022/08/22 08:40:32;;;;;;;4.50;4.10;;;22.90;99.90;;;;;;4997616;28;1075791;-69
2022/08/22 08:46:15;;;;;;;4.73;4.20;;;23.10;99.90;;;;;;5036007;28;20654;-69
2022/08/22 08:48:55;;;;;;;5.87;4.50;;;23.30;99.90;;;;;;5033492;28;20409;-68
2022/08/22 08:51:49;;;;;;;4.77;4.23;;;23.50;99.80;;;;;;5035688;28;20797;-68
2022/08/22 08:54:31;;;;;;;6.13;5.03;;;23.50;99.30;;;;;;5034088;28;20426;-68
2022/08/22 08:57:18;;;;;;;6.03;4.70;;;23.40;99.60;;;;;;5035748;28;20394;-68
2022/08/22 09:00:02;;;;;;;4.53;4.13;;;23.60;99.30;;;;;;5035246;28;20457;-69
2022/08/22 09:02:44;;;;;;;5.43;4.53;;;23.80;99.20;;;;;;5034744;28;20771;-69
2022/08/22 09:05:34;;;;;;;5.50;4.87;;;24.00;98.70;;;;;;5035302;28;20421;-69
2022/08/22 09:08:21;;;;;;;4.63;4.23;;;23.80;98.90;;;;;;5035558;28;20796;-68
2022/08/22 09:11:16;;;;;;;4.80;3.90;;;23.90;98.80;;;;;;5034837;28;20430;-69
2022/08/22 09:13:50;;;;;;;6.23;5.40;;;24.20;99.00;;;;;;5035660;28;20759;-69
2022/08/22 09:16:23;;;;;;;5.90;4.93;;;24.30;98.30;;;;;;5034839;28;20398;-68
2022/08/22 09:19:10;;;;;;;4.90;4.50;;;24.20;98.40;;;;;;5034058;28;20394;-69
2022/08/22 09:21:54;;;;;;;4.97;4.53;;;24.20;98.70;;;;;;5034970;28;20999;-68
2022/08/22 09:24:40;;;;;;;5.00;4.60;;;24.40;98.50;;;;;;5034766;28;20440;-69
2022/08/22 09:27:15;;;;;;;4.50;4.10;;;24.40;97.40;;;;;;5035202;28;20386;-69
2022/08/22 09:29:48;;;;;;;5.53;4.60;;;24.40;97.40;;;;;;5035047;28;20390;-68
2022/08/22 09:32:46;;;;;;;4.70;4.30;;;24.60;97.90;;;;;;5034739;28;20434;-69
2022/08/22 09:35:47;;;;;;;5.80;4.93;;;24.60;97.90;;;;;;5034526;28;20843;-69
2022/08/22 09:38:31;;;;;;;5.10;4.60;;;24.60;98.20;;;;;;5013798;28;20433;-69
2022/08/22 09:40:59;;;;;;;5.20;3.50;;;24.80;96.90;;;;;;5034726;28;20469;-68
2022/08/22 09:43:38;;;;;;;4.70;4.30;;;25.00;96.20;;;;;;5034481;28;20410;-68
2022/08/22 09:46:22;;;;;;;5.37;4.83;;;25.30;96.70;;;;;;5034434;28;20390;-68
2022/08/22 09:48:59;;;;;;;4.83;4.43;;;25.20;96.60;;;;;;5034733;28;20422;-69
2022/08/22 09:51:37;;;;;;;5.20;4.80;;;25.20;97.40;;;;;;5034606;28;20842;-69
2022/08/22 09:54:05;;;;;;;5.10;4.60;;;25.40;97.10;;;;;;5033370;28;20899;-68
2022/08/22 09:56:47;;;;;;;4.93;4.53;;;25.40;97.30;;;;;;5033953;28;20398;-69
2022/08/22 09:59:39;;;;;;;4.90;4.50;;;25.60;96.70;;;;;;5034399;28;20491;-69
2022/08/22 10:02:20;;;;;;;4.90;4.40;;;25.80;96.10;;;;;;5034252;28;20930;-69
2022/08/22 10:05:06;;;;;;;3.90;3.50;;;25.70;94.80;;;;;;5034521;28;20382;-69
2022/08/22 10:07:52;;;;;;;4.73;3.87;;;25.60;94.70;;;;;;5034414;28;20383;-68
2022/08/22 10:10:33;;;;;;;4.20;3.40;;;25.60;94.10;;;;;;5033478;28;20422;-69
2022/08/22 10:13:10;;;;;;;4.77;3.63;;;25.90;92.70;;;;;;5033158;28;20436;-69
2022/08/22 10:15:54;;;;;;;5.00;4.50;;;26.10;92.00;;;;;;5034366;28;20405;-69
2022/08/22 10:18:38;;;;;;;4.60;4.20;;;26.30;92.70;;;;;;5034213;28;20482;-69
2022/08/22 10:21:37;;;;;;;4.93;4.10;;;26.40;92.90;;;;;;5034017;28;20821;-69
2022/08/22 10:24:19;;;;;;;3.93;3.63;;;26.60;91.80;;;;;;5033666;28;20378;-69
2022/08/22 10:27:10;;;;;;;4.67;3.70;;;26.80;91.30;;;;;;5033936;28;20387;-69
2022/08/22 10:30:05;;;;;;;3.50;3.20;;;26.90;89.90;;;;;;5033069;28;20394;-69
2022/08/22 10:33:05;;;;;;;6.13;4.07;;;27.00;89.30;;;;;;5034087;28;20506;-69
2022/08/22 10:35:49;;;;;;;5.10;3.77;;;27.10;90.00;;;;;;5033673;28;20386;-68
2022/08/22 10:38:24;;;;;;;3.50;3.20;;;27.00;86.00;;;;;;5033623;28;20389;-68
2022/08/22 10:41:11;;;;;;;4.27;3.40;;;27.20;82.30;;;;;;5032561;28;20483;-68
2022/08/22 10:43:47;;;;;;;3.80;3.50;;;27.10;82.50;;;;;;5033408;28;20415;-69
2022/08/22 10:46:17;;;;;;;4.43;4.03;;;26.90;81.80;;;;;;5033504;28;20390;-69
2022/08/22 10:48:54;;;;;;;3.70;3.40;;;27.00;85.20;;;;;;5033443;28;20403;-68
2022/08/22 10:51:42;;;;;;;5.50;4.70;;;27.30;81.40;;;;;;5033421;28;20426;-69
2022/08/22 10:54:31;;;;;;;4.80;3.90;;;27.60;81.70;;;;;;5033044;28;20379;-69
2022/08/22 10:57:06;;;;;;;3.90;3.60;;;27.80;82.10;;;;;;5032686;28;20735;-69
2022/08/22 10:59:44;;;;;;;4.03;3.20;;;28.60;80.40;;;;;;5033176;28;20441;-69
2022/08/22 11:02:22;;;;;;;11.03;4.40;;;29.20;76.20;;;;;;5033377;28;20954;-69
2022/08/22 11:04:53;;;;;;;3.83;3.43;;;29.60;73.50;;;;;;5024052;28;20498;-69
2022/08/22 11:07:45;;;;;;;4.37;3.33;;;29.50;73.60;;;;;;5014181;28;20399;-71
2022/08/22 11:10:43;;;;;;;4.43;3.63;;;29.70;69.50;;;;;;5025075;28;20506;-70
2022/08/22 11:13:45;;;;;;;4.57;3.10;;;30.70;66.40;;;;;;4999816;28;20418;-69
2022/08/22 11:16:21;;;;;;;4.10;3.70;;;31.90;63.00;;;;;;5033258;28;20831;-69
2022/08/22 11:19:17;;;;;;;4.07;3.77;;;33.40;60.60;;;;;;5033167;28;20390;-69
2022/08/22 11:21:49;;;;;;;4.57;3.80;;;34.10;58.10;;;;;;5033088;28;20422;-69
2022/08/22 11:24:53;;;;;;;3.53;3.23;;;33.70;56.20;;;;;;5032761;28;20395;-69
2022/08/22 11:27:30;;;;;;;6.23;3.63;;;33.30;55.90;;;;;;5032896;28;20437;-70
2022/08/22 11:30:11;;;;;;;3.17;2.87;;;33.60;55.40;;;;;;5032543;28;20959;-69
2022/08/22 11:32:56;;;;;;;3.80;3.50;;;35.10;52.80;;;;;;5033106;28;20409;-69
2022/08/22 11:35:31;;;;;;;4.10;3.80;;;35.40;51.50;;;;;;5032951;28;20378;-70
2022/08/22 11:38:23;;;;;;;4.40;3.40;;;35.50;50.90;;;;;;5033030;28;20492;-70
2022/08/22 11:43:39;;;;;;;3.60;3.30;;;36.50;48.60;;;;;;5038836;23;20488;-69
2022/08/22 11:46:30;;;;;;;4.07;3.60;;;36.00;48.50;;;;;;4999347;28;20498;-69
2022/08/22 11:49:05;;;;;;;3.70;3.40;;;35.20;47.80;;;;;;5017489;28;20426;-68
2022/08/22 11:52:02;;;;;;;4.37;3.93;;;34.30;50.40;;;;;;5017408;28;20498;-70
2022/08/22 11:55:01;;;;;;;6.30;3.43;;;36.00;48.90;;;;;;5016721;28;20437;-70
2022/08/22 11:57:44;;;;;;;4.23;3.20;;;36.90;45.30;;;;;;5013446;28;20411;-69
2022/08/22 12:00:28;;;;;;;4.13;3.10;;;35.40;46.10;;;;;;4997257;28;20853;-70
2022/08/22 12:03:18;;;;;;;4.67;3.33;;;34.40;47.00;;;;;;4997684;28;20963;-69
2022/08/22 12:05:50;;;;;;;3.93;3.50;;;32.70;49.50;;;;;;4997379;28;20742;-69
2022/08/22 12:08:36;;;;;;;3.90;3.50;;;30.80;53.40;;;;;;4997480;28;20430;-69
2022/08/22 12:11:08;;;;;;;4.23;3.83;;;29.80;56.10;;;;;;4996484;28;20404;-70
2022/08/22 12:13:45;;;;;;;4.57;4.17;;;29.40;57.70;;;;;;4996754;28;20399;-69
2022/08/22 12:16:20;;;;;;;4.27;3.80;;;29.40;58.60;;;;;;4996787;28;20384;-69
2022/08/22 12:19:12;;;;;;;4.40;4.00;;;29.40;59.20;;;;;;4996971;28;20391;-69
2022/08/22 12:21:56;;;;;;;5.10;3.77;;;29.00;60.00;;;;;;4997150;28;20423;-69
2022/08/22 12:24:32;;;;;;;5.00;3.57;;;28.60;61.00;;;;;;4996708;28;20412;-69
2022/08/22 12:27:16;;;;;;;4.37;4.03;;;30.10;59.10;;;;;;5009654;28;20518;-70
2022/08/22 12:30:20;;;;;;;3.90;3.53;;;33.00;54.80;;;;;;5016765;28;20810;-69
2022/08/22 12:32:47;;;;;;;3.90;3.60;;;33.80;52.30;;;;;;4936548;29;20978;-70
2022/08/22 12:35:24;;;;;;;4.30;3.63;;;32.90;53.10;;;;;;4936757;29;20421;-69
2022/08/22 12:37:59;;;;;;;4.20;3.80;;;34.20;52.70;;;;;;4980444;28;20774;-70
2022/08/22 12:41:06;;;;;;;4.30;3.90;;;35.80;49.50;;;;;;5016409;28;20847;-70
2022/08/22 12:43:44;;;;;;;12.13;3.83;;;33.90;50.90;;;;;;5015937;28;20414;-70
2022/08/22 12:46:24;;;;;;;3.60;3.30;;;32.30;53.60;;;;;;5016266;28;20452;-69
2022/08/22 12:48:58;;;;;;;4.33;3.90;;;31.80;54.90;;;;;;5016194;28;20532;-70
2022/08/22 12:51:31;;;;;;;4.07;3.63;;;31.10;55.90;;;;;;5015872;28;20414;-69
2022/08/22 12:54:06;;;;;;;4.00;3.30;;;30.90;56.00;;;;;;5016031;28;20388;-69
2022/08/22 12:56:38;;;;;;;3.93;3.27;;;32.70;54.50;;;;;;5015714;28;20399;-69
2022/08/22 12:59:29;;;;;;;4.43;3.50;;;34.20;51.00;;;;;;5014387;28;20415;-69
2022/08/22 13:02:01;;;;;;;3.60;2.90;;;35.10;49.20;;;;;;5015939;28;20502;-69
2022/08/22 13:04:31;;;;;;;3.60;2.97;;;36.00;48.20;;;;;;5015939;28;20719;-69
2022/08/22 13:07:08;;;;;;;3.50;3.20;;;35.30;47.30;;;;;;5015590;28;20407;-68
2022/08/22 13:09:39;;;;;;;3.73;3.43;;;33.70;49.80;;;;;;5015774;28;20406;-69
2022/08/22 13:12:34;;;;;;;4.30;3.57;;;33.80;50.50;;;;;;5015349;28;20457;-69
2022/08/22 13:15:27;;;;;;;3.67;3.37;;;34.90;49.00;;;;;;5015258;28;20927;-68
2022/08/22 13:17:54;;;;;;;4.03;3.13;;;35.50;47.60;;;;;;5015377;28;20475;-68
2022/08/22 13:20:25;;;;;;;3.53;3.20;;;37.00;45.30;;;;;;5015190;28;20447;-69
2022/08/22 13:22:52;;;;;;;3.37;3.07;;;36.30;45.90;;;;;;5015199;28;20411;-68
2022/08/22 13:25:20;;;;;;;4.80;2.73;;;34.90;46.90;;;;;;5015173;28;20411;-69
2022/08/22 13:27:49;;;;;;;3.70;3.40;;;34.70;47.70;;;;;;5014979;28;20421;-69
2022/08/22 13:30:31;;;;;;;3.73;3.27;;;33.60;48.10;;;;;;5014663;28;20415;-68
2022/08/22 13:33:12;;;;;;;2.80;2.60;;;32.60;49.60;;;;;;4997453;28;20450;-68
2022/08/22 13:36:11;;;;;;;3.33;3.10;;;31.60;51.40;;;;;;5015549;28;20427;-69
2022/08/22 13:39:04;;;;;;;3.63;3.33;;;30.90;52.40;;;;;;5000324;28;20492;-68
2022/08/22 13:41:35;;;;;;;3.80;3.10;;;30.40;53.40;;;;;;5015043;28;20560;-70
2022/08/22 13:44:03;;;;;;;3.90;3.30;;;30.20;54.50;;;;;;5014506;28;20427;-70
2022/08/22 13:46:31;;;;;;;2.90;2.60;;;30.40;54.30;;;;;;5015004;28;20461;-70
2022/08/22 13:48:59;;;;;;;3.97;3.40;;;30.80;54.60;;;;;;5014937;28;20418;-69
2022/08/22 13:51:47;;;;;;;3.80;3.30;;;32.00;52.00;;;;;;5014650;28;20429;-68
2022/08/22 13:54:24;;;;;;;5.10;3.50;;;31.10;53.00;;;;;;5014930;28;20395;-68
2022/08/22 13:57:04;;;;;;;4.20;3.30;;;30.50;54.00;;;;;;5013644;28;21034;-70
2022/08/22 13:59:50;;;;;;;3.90;3.60;;;30.20;54.90;;;;;;5013180;28;20508;-70
2022/08/22 14:02:26;;;;;;;3.73;3.27;;;29.50;55.90;;;;;;5014393;28;20418;-70
2022/08/22 14:04:53;;;;;;;4.03;3.63;;;29.60;55.70;;;;;;5013727;28;20379;-70